sensor_id;sensor_type;location;lat;lon;timestamp;P1;durP1;ratioP1;P2;durP2;ratioP2
35298;SDS011;21415;48.054;16.646;2022-12-24T00:00:26;9.82;;;7.25;;
35298;SDS011;21415;48.054;16.646;2022-12-24T00:02:53;10.18;;;7.20;;
35298;SDS011;21415;48.054;16.646;2022-12-24T00:05:19;9.65;;;7.28;;
35298;SDS011;21415;48.054;16.646;2022-12-24T00:07:45;10.13;;;7.13;;
35298;SDS011;21415;48.054;16.646;2022-12-24T00:10:10;9.50;;;7.82;;
35298;SDS011;21415;48.054;16.646;2022-12-24T00:12:36;8.77;;;6.53;;
35298;SDS011;21415;48.054;16.646;2022-12-24T00:15:02;12.82;;;7.65;;
35298;SDS011;21415;48.054;16.646;2022-12-24T00:17:29;7.78;;;6.43;;
35298;SDS011;21415;48.054;16.646;2022-12-24T00:19:55;8.32;;;6.28;;
35298;SDS011;21415;48.054;16.646;2022-12-24T00:22:21;7.80;;;6.40;;
35298;SDS011;21415;48.054;16.646;2022-12-24T00:24:47;9.35;;;6.90;;
35298;SDS011;21415;48.054;16.646;2022-12-24T00:27:12;15.05;;;7.60;;
35298;SDS011;21415;48.054;16.646;2022-12-24T00:29:38;9.05;;;6.15;;
35298;SDS011;21415;48.054;16.646;2022-12-24T00:32:04;8.98;;;6.45;;
35298;SDS011;21415;48.054;16.646;2022-12-24T00:34:35;33.60;;;17.17;;
35298;SDS011;21415;48.054;16.646;2022-12-24T00:37:04;88.20;;;42.33;;
35298;SDS011;21415;48.054;16.646;2022-12-24T00:44:22;18.45;;;10.85;;
35298;SDS011;21415;48.054;16.646;2022-12-24T00:46:47;11.98;;;8.13;;
35298;SDS011;21415;48.054;16.646;2022-12-24T00:49:13;11.63;;;7.40;;
35298;SDS011;21415;48.054;16.646;2022-12-24T00:51:39;9.48;;;6.80;;
35298;SDS011;21415;48.054;16.646;2022-12-24T00:54:05;9.33;;;6.83;;
35298;SDS011;21415;48.054;16.646;2022-12-24T00:56:31;10.27;;;7.38;;
35298;SDS011;21415;48.054;16.646;2022-12-24T01:01:23;6.95;;;5.68;;
35298;SDS011;21415;48.054;16.646;2022-12-24T01:03:50;7.15;;;5.47;;
35298;SDS011;21415;48.054;16.646;2022-12-24T01:06:17;7.50;;;5.43;;
35298;SDS011;21415;48.054;16.646;2022-12-24T01:08:44;7.93;;;5.60;;
35298;SDS011;21415;48.054;16.646;2022-12-24T01:11:10;7.90;;;5.65;;
35298;SDS011;21415;48.054;16.646;2022-12-24T01:13:37;7.03;;;5.70;;
35298;SDS011;21415;48.054;16.646;2022-12-24T01:16:10;7.18;;;6.05;;
35298;SDS011;21415;48.054;16.646;2022-12-24T01:18:41;6.60;;;4.95;;
35298;SDS011;21415;48.054;16.646;2022-12-24T01:21:07;7.85;;;5.75;;
35298;SDS011;21415;48.054;16.646;2022-12-24T01:23:33;7.55;;;5.45;;
35298;SDS011;21415;48.054;16.646;2022-12-24T01:25:59;6.75;;;5.60;;
35298;SDS011;21415;48.054;16.646;2022-12-24T01:28:26;7.40;;;5.32;;
35298;SDS011;21415;48.054;16.646;2022-12-24T01:30:52;7.70;;;5.45;;
35298;SDS011;21415;48.054;16.646;2022-12-24T01:33:18;6.10;;;4.93;;
35298;SDS011;21415;48.054;16.646;2022-12-24T01:35:44;6.13;;;4.82;;
35298;SDS011;21415;48.054;16.646;2022-12-24T01:38:11;5.25;;;4.40;;
35298;SDS011;21415;48.054;16.646;2022-12-24T01:40:40;6.25;;;5.03;;
35298;SDS011;21415;48.054;16.646;2022-12-24T01:43:26;5.45;;;4.07;;
35298;SDS011;21415;48.054;16.646;2022-12-24T01:46:01;6.47;;;4.97;;
35298;SDS011;21415;48.054;16.646;2022-12-24T01:48:44;6.40;;;4.70;;
35298;SDS011;21415;48.054;16.646;2022-12-24T01:53:57;6.88;;;5.38;;
35298;SDS011;21415;48.054;16.646;2022-12-24T01:56:29;6.55;;;4.97;;
35298;SDS011;21415;48.054;16.646;2022-12-24T01:59:02;5.70;;;4.22;;
35298;SDS011;21415;48.054;16.646;2022-12-24T02:01:30;4.15;;;3.63;;
35298;SDS011;21415;48.054;16.646;2022-12-24T02:03:56;5.75;;;4.57;;
35298;SDS011;21415;48.054;16.646;2022-12-24T02:06:23;5.28;;;4.10;;
35298;SDS011;21415;48.054;16.646;2022-12-24T02:08:50;3.78;;;3.20;;
35298;SDS011;21415;48.054;16.646;2022-12-24T02:11:19;3.30;;;2.80;;
35298;SDS011;21415;48.054;16.646;2022-12-24T02:13:52;2.92;;;2.28;;
35298;SDS011;21415;48.054;16.646;2022-12-24T02:18:57;2.60;;;1.67;;
35298;SDS011;21415;48.054;16.646;2022-12-24T02:32:20;2.55;;;1.60;;
35298;SDS011;21415;48.054;16.646;2022-12-24T02:35:29;2.50;;;1.70;;
35298;SDS011;21415;48.054;16.646;2022-12-24T02:38:02;2.70;;;1.92;;
35298;SDS011;21415;48.054;16.646;2022-12-24T02:40:37;1.55;;;0.90;;
35298;SDS011;21415;48.054;16.646;2022-12-24T02:43:09;0.93;;;0.57;;
35298;SDS011;21415;48.054;16.646;2022-12-24T02:45:41;0.77;;;0.40;;
35298;SDS011;21415;48.054;16.646;2022-12-24T02:48:11;0.40;;;0.20;;
35298;SDS011;21415;48.054;16.646;2022-12-24T02:50:39;0.30;;;0.10;;
35298;SDS011;21415;48.054;16.646;2022-12-24T02:53:05;0.20;;;0.20;;
35298;SDS011;21415;48.054;16.646;2022-12-24T02:55:38;0.30;;;0.10;;
35298;SDS011;21415;48.054;16.646;2022-12-24T03:06:48;0.13;;;0.10;;
35298;SDS011;21415;48.054;16.646;2022-12-24T03:12:36;0.13;;;0.00;;
35298;SDS011;21415;48.054;16.646;2022-12-24T03:14:39;1.13;;;0.10;;
35298;SDS011;21415;48.054;16.646;2022-12-24T03:17:06;0.50;;;0.20;;
35298;SDS011;21415;48.054;16.646;2022-12-24T03:19:33;0.50;;;0.22;;
35298;SDS011;21415;48.054;16.646;2022-12-24T03:22:00;1.00;;;0.30;;
35298;SDS011;21415;48.054;16.646;2022-12-24T03:24:31;0.75;;;0.40;;
35298;SDS011;21415;48.054;16.646;2022-12-24T03:26:57;0.82;;;0.35;;
35298;SDS011;21415;48.054;16.646;2022-12-24T03:34:17;1.30;;;0.52;;
35298;SDS011;21415;48.054;16.646;2022-12-24T03:36:43;1.25;;;0.70;;
35298;SDS011;21415;48.054;16.646;2022-12-24T03:39:11;1.67;;;1.00;;
35298;SDS011;21415;48.054;16.646;2022-12-24T03:41:37;2.58;;;1.45;;
35298;SDS011;21415;48.054;16.646;2022-12-24T03:44:03;1.63;;;1.00;;
35298;SDS011;21415;48.054;16.646;2022-12-24T03:46:29;0.50;;;0.30;;
35298;SDS011;21415;48.054;16.646;2022-12-24T03:48:55;0.75;;;0.40;;
35298;SDS011;21415;48.054;16.646;2022-12-24T03:51:23;0.68;;;0.32;;
35298;SDS011;21415;48.054;16.646;2022-12-24T03:53:52;1.02;;;0.30;;
35298;SDS011;21415;48.054;16.646;2022-12-24T03:56:19;0.10;;;0.10;;
35298;SDS011;21415;48.054;16.646;2022-12-24T03:58:45;0.30;;;0.20;;
35298;SDS011;21415;48.054;16.646;2022-12-24T04:01:12;0.15;;;0.10;;
35298;SDS011;21415;48.054;16.646;2022-12-24T04:03:37;0.28;;;0.20;;
35298;SDS011;21415;48.054;16.646;2022-12-24T04:06:05;0.55;;;0.20;;
35298;SDS011;21415;48.054;16.646;2022-12-24T04:08:32;0.60;;;0.28;;
35298;SDS011;21415;48.054;16.646;2022-12-24T04:10:58;0.80;;;0.20;;
35298;SDS011;21415;48.054;16.646;2022-12-24T04:13:24;0.98;;;0.25;;
35298;SDS011;21415;48.054;16.646;2022-12-24T04:15:59;0.22;;;0.10;;
35298;SDS011;21415;48.054;16.646;2022-12-24T04:18:27;0.47;;;0.20;;
35298;SDS011;21415;48.054;16.646;2022-12-24T04:20:53;1.00;;;0.22;;
35298;SDS011;21415;48.054;16.646;2022-12-24T04:23:19;0.55;;;0.20;;
35298;SDS011;21415;48.054;16.646;2022-12-24T04:25:45;0.73;;;0.20;;
35298;SDS011;21415;48.054;16.646;2022-12-24T04:28:11;0.73;;;0.30;;
35298;SDS011;21415;48.054;16.646;2022-12-24T04:35:29;0.50;;;0.20;;
35298;SDS011;21415;48.054;16.646;2022-12-24T04:37:55;1.98;;;0.30;;
35298;SDS011;21415;48.054;16.646;2022-12-24T04:40:21;0.77;;;0.10;;
35298;SDS011;21415;48.054;16.646;2022-12-24T04:42:46;1.05;;;0.20;;
35298;SDS011;21415;48.054;16.646;2022-12-24T04:45:13;0.63;;;0.20;;
35298;SDS011;21415;48.054;16.646;2022-12-24T04:47:39;0.65;;;0.45;;
35298;SDS011;21415;48.054;16.646;2022-12-24T04:50:05;0.55;;;0.20;;
35298;SDS011;21415;48.054;16.646;2022-12-24T04:52:32;1.67;;;0.22;;
35298;SDS011;21415;48.054;16.646;2022-12-24T04:54:58;0.40;;;0.20;;
35298;SDS011;21415;48.054;16.646;2022-12-24T04:57:23;0.40;;;0.10;;
35298;SDS011;21415;48.054;16.646;2022-12-24T04:59:49;0.50;;;0.20;;
35298;SDS011;21415;48.054;16.646;2022-12-24T05:02:15;1.55;;;0.20;;
35298;SDS011;21415;48.054;16.646;2022-12-24T05:04:41;0.70;;;0.20;;
35298;SDS011;21415;48.054;16.646;2022-12-24T05:07:06;0.47;;;0.20;;
35298;SDS011;21415;48.054;16.646;2022-12-24T05:09:32;0.40;;;0.13;;
35298;SDS011;21415;48.054;16.646;2022-12-24T05:11:58;1.25;;;0.10;;
35298;SDS011;21415;48.054;16.646;2022-12-24T05:14:24;1.05;;;0.22;;
35298;SDS011;21415;48.054;16.646;2022-12-24T05:16:49;1.08;;;0.20;;
35298;SDS011;21415;48.054;16.646;2022-12-24T05:19:15;2.35;;;0.98;;
35298;SDS011;21415;48.054;16.646;2022-12-24T05:21:41;3.97;;;2.03;;
35298;SDS011;21415;48.054;16.646;2022-12-24T05:24:08;2.47;;;0.70;;
35298;SDS011;21415;48.054;16.646;2022-12-24T05:26:55;0.63;;;0.30;;
35298;SDS011;21415;48.054;16.646;2022-12-24T05:29:22;1.10;;;0.55;;
35298;SDS011;21415;48.054;16.646;2022-12-24T05:31:49;3.90;;;2.58;;
35298;SDS011;21415;48.054;16.646;2022-12-24T05:34:15;2.42;;;1.27;;
35298;SDS011;21415;48.054;16.646;2022-12-24T05:36:41;1.33;;;0.70;;
35298;SDS011;21415;48.054;16.646;2022-12-24T05:41:37;2.25;;;0.50;;
35298;SDS011;21415;48.054;16.646;2022-12-24T05:44:02;1.08;;;0.40;;
35298;SDS011;21415;48.054;16.646;2022-12-24T05:46:28;1.52;;;0.30;;
35298;SDS011;21415;48.054;16.646;2022-12-24T05:48:54;0.93;;;0.50;;
35298;SDS011;21415;48.054;16.646;2022-12-24T05:51:20;1.65;;;0.60;;
35298;SDS011;21415;48.054;16.646;2022-12-24T05:53:47;2.83;;;1.15;;
35298;SDS011;21415;48.054;16.646;2022-12-24T05:56:14;2.65;;;0.95;;
35298;SDS011;21415;48.054;16.646;2022-12-24T05:58:43;0.77;;;0.40;;
35298;SDS011;21415;48.054;16.646;2022-12-24T06:01:09;1.08;;;0.32;;
35298;SDS011;21415;48.054;16.646;2022-12-24T06:03:36;1.70;;;0.32;;
35298;SDS011;21415;48.054;16.646;2022-12-24T06:06:03;0.95;;;0.40;;
35298;SDS011;21415;48.054;16.646;2022-12-24T06:08:31;1.65;;;0.57;;
35298;SDS011;21415;48.054;16.646;2022-12-24T06:10:58;2.28;;;0.60;;
35298;SDS011;21415;48.054;16.646;2022-12-24T06:13:26;1.67;;;0.82;;
35298;SDS011;21415;48.054;16.646;2022-12-24T06:15:59;3.92;;;1.25;;
35298;SDS011;21415;48.054;16.646;2022-12-24T06:18:27;2.20;;;1.10;;
35298;SDS011;21415;48.054;16.646;2022-12-24T06:20:55;1.38;;;0.70;;
35298;SDS011;21415;48.054;16.646;2022-12-24T06:23:21;1.08;;;0.40;;
35298;SDS011;21415;48.054;16.646;2022-12-24T06:25:48;2.25;;;0.68;;
35298;SDS011;21415;48.054;16.646;2022-12-24T06:28:14;1.80;;;0.35;;
35298;SDS011;21415;48.054;16.646;2022-12-24T06:33:09;0.77;;;0.20;;
35298;SDS011;21415;48.054;16.646;2022-12-24T06:35:35;0.52;;;0.30;;
35298;SDS011;21415;48.054;16.646;2022-12-24T06:38:01;1.45;;;0.70;;
35298;SDS011;21415;48.054;16.646;2022-12-24T06:40:27;1.88;;;0.60;;
35298;SDS011;21415;48.054;16.646;2022-12-24T06:42:52;1.45;;;0.47;;
35298;SDS011;21415;48.054;16.646;2022-12-24T06:45:18;0.60;;;0.35;;
35298;SDS011;21415;48.054;16.646;2022-12-24T06:47:44;0.90;;;0.50;;
35298;SDS011;21415;48.054;16.646;2022-12-24T06:50:10;1.23;;;0.55;;
35298;SDS011;21415;48.054;16.646;2022-12-24T06:52:36;1.08;;;0.60;;
35298;SDS011;21415;48.054;16.646;2022-12-24T06:55:02;1.75;;;0.70;;
35298;SDS011;21415;48.054;16.646;2022-12-24T06:57:29;3.03;;;0.80;;
35298;SDS011;21415;48.054;16.646;2022-12-24T06:59:56;1.52;;;0.70;;
35298;SDS011;21415;48.054;16.646;2022-12-24T07:02:22;2.03;;;1.00;;
35298;SDS011;21415;48.054;16.646;2022-12-24T07:04:48;1.40;;;0.60;;
35298;SDS011;21415;48.054;16.646;2022-12-24T07:07:14;1.50;;;0.70;;
35298;SDS011;21415;48.054;16.646;2022-12-24T07:09:40;2.33;;;1.77;;
35298;SDS011;21415;48.054;16.646;2022-12-24T07:12:06;5.10;;;2.65;;
35298;SDS011;21415;48.054;16.646;2022-12-24T07:14:31;2.75;;;2.10;;
35298;SDS011;21415;48.054;16.646;2022-12-24T07:16:57;2.80;;;1.33;;
35298;SDS011;21415;48.054;16.646;2022-12-24T07:19:23;1.20;;;0.80;;
35298;SDS011;21415;48.054;16.646;2022-12-24T07:21:49;0.68;;;0.45;;
35298;SDS011;21415;48.054;16.646;2022-12-24T07:24:15;1.08;;;0.50;;
35298;SDS011;21415;48.054;16.646;2022-12-24T07:26:41;1.52;;;0.40;;
35298;SDS011;21415;48.054;16.646;2022-12-24T07:29:07;1.48;;;0.73;;
35298;SDS011;21415;48.054;16.646;2022-12-24T07:31:32;2.10;;;0.65;;
35298;SDS011;21415;48.054;16.646;2022-12-24T07:33:58;2.05;;;0.90;;
35298;SDS011;21415;48.054;16.646;2022-12-24T07:36:24;4.20;;;1.77;;
35298;SDS011;21415;48.054;16.646;2022-12-24T07:38:52;6.95;;;4.28;;
35298;SDS011;21415;48.054;16.646;2022-12-24T07:46:10;2.03;;;1.00;;
35298;SDS011;21415;48.054;16.646;2022-12-24T07:48:36;2.58;;;1.05;;
35298;SDS011;21415;48.054;16.646;2022-12-24T07:58:20;1.13;;;0.55;;
35298;SDS011;21415;48.054;16.646;2022-12-24T08:00:46;2.25;;;0.70;;
35298;SDS011;21415;48.054;16.646;2022-12-24T08:03:19;1.73;;;0.90;;
35298;SDS011;21415;48.054;16.646;2022-12-24T08:05:45;3.05;;;0.90;;
35298;SDS011;21415;48.054;16.646;2022-12-24T08:08:11;2.08;;;1.00;;
35298;SDS011;21415;48.054;16.646;2022-12-24T08:10:38;3.60;;;1.00;;
35298;SDS011;21415;48.054;16.646;2022-12-24T08:13:04;3.17;;;1.00;;
35298;SDS011;21415;48.054;16.646;2022-12-24T08:15:31;2.47;;;1.17;;
35298;SDS011;21415;48.054;16.646;2022-12-24T08:22:48;2.25;;;1.27;;
35298;SDS011;21415;48.054;16.646;2022-12-24T08:25:14;2.97;;;2.42;;
35298;SDS011;21415;48.054;16.646;2022-12-24T08:27:39;3.17;;;1.92;;
35298;SDS011;21415;48.054;16.646;2022-12-24T08:30:05;2.70;;;1.10;;
35298;SDS011;21415;48.054;16.646;2022-12-24T08:32:32;4.55;;;0.70;;
35298;SDS011;21415;48.054;16.646;2022-12-24T08:34:58;2.65;;;0.98;;
35298;SDS011;21415;48.054;16.646;2022-12-24T08:37:24;3.03;;;0.70;;
35298;SDS011;21415;48.054;16.646;2022-12-24T08:39:49;1.05;;;0.50;;
35298;SDS011;21415;48.054;16.646;2022-12-24T08:42:15;0.47;;;0.35;;
35298;SDS011;21415;48.054;16.646;2022-12-24T08:44:41;1.25;;;0.50;;
35298;SDS011;21415;48.054;16.646;2022-12-24T08:47:06;1.85;;;0.50;;
35298;SDS011;21415;48.054;16.646;2022-12-24T08:49:32;1.00;;;0.57;;
35298;SDS011;21415;48.054;16.646;2022-12-24T08:51:58;1.15;;;0.35;;
35298;SDS011;21415;48.054;16.646;2022-12-24T08:54:24;3.15;;;0.73;;
35298;SDS011;21415;48.054;16.646;2022-12-24T08:56:50;1.65;;;0.57;;
35298;SDS011;21415;48.054;16.646;2022-12-24T08:59:16;1.75;;;0.68;;
35298;SDS011;21415;48.054;16.646;2022-12-24T09:01:42;3.08;;;0.50;;
35298;SDS011;21415;48.054;16.646;2022-12-24T09:04:08;1.52;;;0.55;;
35298;SDS011;21415;48.054;16.646;2022-12-24T09:06:33;2.38;;;0.52;;
35298;SDS011;21415;48.054;16.646;2022-12-24T09:09:00;0.90;;;0.50;;
35298;SDS011;21415;48.054;16.646;2022-12-24T09:11:26;3.35;;;0.30;;
35298;SDS011;21415;48.054;16.646;2022-12-24T09:13:52;2.67;;;0.40;;
35298;SDS011;21415;48.054;16.646;2022-12-24T09:16:18;0.40;;;0.20;;
35298;SDS011;21415;48.054;16.646;2022-12-24T09:18:44;0.98;;;0.30;;
35298;SDS011;21415;48.054;16.646;2022-12-24T09:21:11;1.33;;;0.50;;
35298;SDS011;21415;48.054;16.646;2022-12-24T09:23:39;1.70;;;0.50;;
35298;SDS011;21415;48.054;16.646;2022-12-24T09:26:07;0.90;;;0.50;;
35298;SDS011;21415;48.054;16.646;2022-12-24T09:28:34;3.65;;;1.05;;
35298;SDS011;21415;48.054;16.646;2022-12-24T09:31:01;2.38;;;0.80;;
35298;SDS011;21415;48.054;16.646;2022-12-24T09:33:29;1.83;;;0.55;;
35298;SDS011;21415;48.054;16.646;2022-12-24T09:35:57;2.17;;;0.82;;
35298;SDS011;21415;48.054;16.646;2022-12-24T09:38:24;3.38;;;1.60;;
35298;SDS011;21415;48.054;16.646;2022-12-24T09:40:50;2.15;;;0.90;;
35298;SDS011;21415;48.054;16.646;2022-12-24T09:43:18;1.15;;;0.70;;
35298;SDS011;21415;48.054;16.646;2022-12-24T09:45:53;6.85;;;4.25;;
35298;SDS011;21415;48.054;16.646;2022-12-24T09:48:27;30.20;;;19.80;;
35298;SDS011;21415;48.054;16.646;2022-12-24T09:50:56;41.90;;;32.55;;
35298;SDS011;21415;48.054;16.646;2022-12-24T09:56:01;20.58;;;18.40;;
35298;SDS011;21415;48.054;16.646;2022-12-24T09:58:33;13.38;;;12.18;;
35298;SDS011;21415;48.054;16.646;2022-12-24T10:01:06;10.55;;;9.55;;
35298;SDS011;21415;48.054;16.646;2022-12-24T10:03:44;6.03;;;5.40;;
35298;SDS011;21415;48.054;16.646;2022-12-24T10:08:49;4.82;;;1.75;;
35298;SDS011;21415;48.054;16.646;2022-12-24T10:11:22;8.88;;;2.10;;
35298;SDS011;21415;48.054;16.646;2022-12-24T10:16:50;2.55;;;1.00;;
35298;SDS011;21415;48.054;16.646;2022-12-24T10:19:20;1.83;;;0.85;;
35298;SDS011;21415;48.054;16.646;2022-12-24T10:24:47;1.63;;;0.70;;
35298;SDS011;21415;48.054;16.646;2022-12-24T10:27:34;3.15;;;0.60;;
35298;SDS011;21415;48.054;16.646;2022-12-24T10:30:13;1.65;;;0.70;;
35298;SDS011;21415;48.054;16.646;2022-12-24T10:32:41;1.02;;;0.43;;
35298;SDS011;21415;48.054;16.646;2022-12-24T10:35:10;1.90;;;0.52;;
35298;SDS011;21415;48.054;16.646;2022-12-24T10:37:47;2.03;;;0.80;;
35298;SDS011;21415;48.054;16.646;2022-12-24T10:42:54;1.75;;;0.68;;
35298;SDS011;21415;48.054;16.646;2022-12-24T10:45:20;1.73;;;0.57;;
35298;SDS011;21415;48.054;16.646;2022-12-24T10:47:48;1.95;;;0.70;;
35298;SDS011;21415;48.054;16.646;2022-12-24T10:50:30;1.65;;;0.50;;
35298;SDS011;21415;48.054;16.646;2022-12-24T10:53:22;1.98;;;0.80;;
35298;SDS011;21415;48.054;16.646;2022-12-24T10:56:28;3.47;;;0.90;;
35298;SDS011;21415;48.054;16.646;2022-12-24T10:58:53;1.67;;;0.60;;
35298;SDS011;21415;48.054;16.646;2022-12-24T11:01:20;1.63;;;0.52;;
35298;SDS011;21415;48.054;16.646;2022-12-24T11:04:14;1.80;;;1.00;;
35298;SDS011;21415;48.054;16.646;2022-12-24T11:06:52;2.20;;;0.73;;
35298;SDS011;21415;48.054;16.646;2022-12-24T11:09:22;1.88;;;0.70;;
35298;SDS011;21415;48.054;16.646;2022-12-24T11:11:56;1.38;;;0.80;;
35298;SDS011;21415;48.054;16.646;2022-12-24T11:14:23;2.17;;;0.73;;
35298;SDS011;21415;48.054;16.646;2022-12-24T11:16:52;3.00;;;0.80;;
35298;SDS011;21415;48.054;16.646;2022-12-24T11:19:28;2.97;;;0.80;;
35298;SDS011;21415;48.054;16.646;2022-12-24T11:21:57;1.30;;;0.57;;
35298;SDS011;21415;48.054;16.646;2022-12-24T11:24:56;2.55;;;0.93;;
35298;SDS011;21415;48.054;16.646;2022-12-24T11:32:45;1.48;;;0.73;;
35298;SDS011;21415;48.054;16.646;2022-12-24T11:35:18;3.95;;;1.40;;
35298;SDS011;21415;48.054;16.646;2022-12-24T11:37:47;2.40;;;0.85;;
35298;SDS011;21415;48.054;16.646;2022-12-24T11:40:21;1.83;;;0.68;;
35298;SDS011;21415;48.054;16.646;2022-12-24T11:42:48;2.88;;;0.73;;
35298;SDS011;21415;48.054;16.646;2022-12-24T11:45:21;3.15;;;0.73;;
35298;SDS011;21415;48.054;16.646;2022-12-24T11:47:50;2.08;;;1.10;;
35298;SDS011;21415;48.054;16.646;2022-12-24T11:55:50;2.70;;;1.00;;
35298;SDS011;21415;48.054;16.646;2022-12-24T11:58:24;3.60;;;0.90;;
35298;SDS011;21415;48.054;16.646;2022-12-24T12:01:11;2.67;;;0.82;;
35298;SDS011;21415;48.054;16.646;2022-12-24T12:03:50;1.45;;;0.75;;
35298;SDS011;21415;48.054;16.646;2022-12-24T12:09:10;2.60;;;0.77;;
35298;SDS011;21415;48.054;16.646;2022-12-24T12:11:39;4.28;;;1.10;;
35298;SDS011;21415;48.054;16.646;2022-12-24T12:14:09;2.10;;;0.85;;
35298;SDS011;21415;48.054;16.646;2022-12-24T12:16:50;5.30;;;2.55;;
35298;SDS011;21415;48.054;16.646;2022-12-24T12:19:31;3.92;;;2.20;;
35298;SDS011;21415;48.054;16.646;2022-12-24T12:22:06;2.95;;;1.40;;
35298;SDS011;21415;48.054;16.646;2022-12-24T12:24:42;2.95;;;1.05;;
35298;SDS011;21415;48.054;16.646;2022-12-24T12:27:19;3.35;;;1.20;;
35298;SDS011;21415;48.054;16.646;2022-12-24T12:30:03;4.03;;;1.00;;
35298;SDS011;21415;48.054;16.646;2022-12-24T12:35:14;2.63;;;1.02;;
35298;SDS011;21415;48.054;16.646;2022-12-24T12:37:53;2.38;;;0.80;;
35298;SDS011;21415;48.054;16.646;2022-12-24T12:40:24;4.35;;;1.10;;
35298;SDS011;21415;48.054;16.646;2022-12-24T12:43:19;2.28;;;0.80;;
35298;SDS011;21415;48.054;16.646;2022-12-24T12:45:57;2.80;;;0.77;;
35298;SDS011;21415;48.054;16.646;2022-12-24T12:51:27;2.38;;;0.80;;
35298;SDS011;21415;48.054;16.646;2022-12-24T12:56:40;4.38;;;0.65;;
35298;SDS011;21415;48.054;16.646;2022-12-24T12:59:19;2.92;;;0.75;;
35298;SDS011;21415;48.054;16.646;2022-12-24T13:07:17;2.70;;;0.90;;
35298;SDS011;21415;48.054;16.646;2022-12-24T13:21:20;2.15;;;1.00;;
35298;SDS011;21415;48.054;16.646;2022-12-24T13:23:48;1.15;;;0.88;;
35298;SDS011;21415;48.054;16.646;2022-12-24T13:26:14;1.85;;;0.63;;
35298;SDS011;21415;48.054;16.646;2022-12-24T13:28:41;1.40;;;0.60;;
35298;SDS011;21415;48.054;16.646;2022-12-24T13:31:21;2.35;;;0.60;;
35298;SDS011;21415;48.054;16.646;2022-12-24T13:33:50;1.30;;;0.68;;
35298;SDS011;21415;48.054;16.646;2022-12-24T13:36:17;1.80;;;0.70;;
35298;SDS011;21415;48.054;16.646;2022-12-24T13:38:48;2.00;;;0.50;;
35298;SDS011;21415;48.054;16.646;2022-12-24T13:49:26;2.10;;;0.75;;
35298;SDS011;21415;48.054;16.646;2022-12-24T13:54:39;3.97;;;0.88;;
35298;SDS011;21415;48.054;16.646;2022-12-24T13:57:22;0.95;;;0.38;;
35298;SDS011;21415;48.054;16.646;2022-12-24T14:02:52;5.55;;;0.73;;
35298;SDS011;21415;48.054;16.646;2022-12-24T14:07:56;1.17;;;0.52;;
35298;SDS011;21415;48.054;16.646;2022-12-24T14:10:25;1.10;;;0.52;;
35298;SDS011;21415;48.054;16.646;2022-12-24T14:12:59;2.35;;;0.40;;
35298;SDS011;21415;48.054;16.646;2022-12-24T14:18:22;1.02;;;0.57;;
35298;SDS011;21415;48.054;16.646;2022-12-24T14:20:49;3.17;;;1.05;;
35298;SDS011;21415;48.054;16.646;2022-12-24T14:26:00;3.17;;;1.58;;
35298;SDS011;21415;48.054;16.646;2022-12-24T14:28:35;4.05;;;2.22;;
35298;SDS011;21415;48.054;16.646;2022-12-24T14:31:10;2.92;;;1.95;;
35298;SDS011;21415;48.054;16.646;2022-12-24T14:33:39;4.75;;;2.10;;
35298;SDS011;21415;48.054;16.646;2022-12-24T14:36:05;2.80;;;1.60;;
35298;SDS011;21415;48.054;16.646;2022-12-24T14:38:31;2.33;;;1.52;;
35298;SDS011;21415;48.054;16.646;2022-12-24T14:47:33;1.20;;;0.85;;
35298;SDS011;21415;48.054;16.646;2022-12-24T14:49:42;3.30;;;1.80;;
35298;SDS011;21415;48.054;16.646;2022-12-24T14:55:29;4.05;;;0.82;;
35298;SDS011;21415;48.054;16.646;2022-12-24T15:00:53;3.05;;;1.00;;
35298;SDS011;21415;48.054;16.646;2022-12-24T15:03:22;2.67;;;0.75;;
35298;SDS011;21415;48.054;16.646;2022-12-24T15:05:50;3.90;;;1.77;;
35298;SDS011;21415;48.054;16.646;2022-12-24T15:08:28;12.80;;;5.70;;
35298;SDS011;21415;48.054;16.646;2022-12-24T15:11:03;17.23;;;9.30;;
35298;SDS011;21415;48.054;16.646;2022-12-24T15:18:34;9.48;;;4.53;;
35298;SDS011;21415;48.054;16.646;2022-12-24T15:21:04;4.60;;;2.55;;
35298;SDS011;21415;48.054;16.646;2022-12-24T15:23:37;8.05;;;2.10;;
35298;SDS011;21415;48.054;16.646;2022-12-24T15:26:22;3.03;;;1.00;;
35298;SDS011;21415;48.054;16.646;2022-12-24T15:28:50;4.35;;;1.48;;
35298;SDS011;21415;48.054;16.646;2022-12-24T15:31:18;3.90;;;2.15;;
35298;SDS011;21415;48.054;16.646;2022-12-24T15:33:46;3.92;;;2.38;;
35298;SDS011;21415;48.054;16.646;2022-12-24T15:36:13;5.25;;;3.92;;
35298;SDS011;21415;48.054;16.646;2022-12-24T15:38:43;5.20;;;4.00;;
35298;SDS011;21415;48.054;16.646;2022-12-24T15:41:18;6.28;;;3.80;;
35298;SDS011;21415;48.054;16.646;2022-12-24T15:43:47;5.43;;;3.72;;
35298;SDS011;21415;48.054;16.646;2022-12-24T15:46:19;11.30;;;6.50;;
35298;SDS011;21415;48.054;16.646;2022-12-24T15:48:50;12.38;;;8.82;;
35298;SDS011;21415;48.054;16.646;2022-12-24T15:51:22;32.65;;;21.30;;
35298;SDS011;21415;48.054;16.646;2022-12-24T15:53:52;25.67;;;15.27;;
35298;SDS011;21415;48.054;16.646;2022-12-24T15:56:41;15.13;;;10.23;;
35298;SDS011;21415;48.054;16.646;2022-12-24T16:01:40;4.82;;;2.97;;
35298;SDS011;21415;48.054;16.646;2022-12-24T16:04:14;3.90;;;1.80;;
35298;SDS011;21415;48.054;16.646;2022-12-24T16:06:52;4.68;;;2.45;;
35298;SDS011;21415;48.054;16.646;2022-12-24T16:09:29;3.28;;;1.90;;
35298;SDS011;21415;48.054;16.646;2022-12-24T16:11:54;5.38;;;1.50;;
35298;SDS011;21415;48.054;16.646;2022-12-24T16:14:21;3.65;;;1.33;;
35298;SDS011;21415;48.054;16.646;2022-12-24T16:16:48;2.97;;;1.27;;
35298;SDS011;21415;48.054;16.646;2022-12-24T16:19:22;2.78;;;1.10;;
35298;SDS011;21415;48.054;16.646;2022-12-24T16:21:54;3.17;;;1.42;;
35298;SDS011;21415;48.054;16.646;2022-12-24T16:24:44;4.72;;;2.25;;
35298;SDS011;21415;48.054;16.646;2022-12-24T16:27:11;2.67;;;1.77;;
35298;SDS011;21415;48.054;16.646;2022-12-24T16:29:37;5.80;;;2.17;;
35298;SDS011;21415;48.054;16.646;2022-12-24T16:32:03;4.60;;;3.20;;
35298;SDS011;21415;48.054;16.646;2022-12-24T16:34:30;10.48;;;6.18;;
35298;SDS011;21415;48.054;16.646;2022-12-24T16:36:57;6.18;;;2.90;;
35298;SDS011;21415;48.054;16.646;2022-12-24T16:39:26;4.90;;;2.10;;
35298;SDS011;21415;48.054;16.646;2022-12-24T16:41:55;2.92;;;1.75;;
35298;SDS011;21415;48.054;16.646;2022-12-24T16:44:41;4.80;;;2.50;;
35298;SDS011;21415;48.054;16.646;2022-12-24T16:49:47;3.42;;;1.58;;
35298;SDS011;21415;48.054;16.646;2022-12-24T16:52:21;22.95;;;12.93;;
35298;SDS011;21415;48.054;16.646;2022-12-24T16:54:50;18.63;;;10.93;;
35298;SDS011;21415;48.054;16.646;2022-12-24T16:57:16;12.32;;;5.72;;
35298;SDS011;21415;48.054;16.646;2022-12-24T16:59:42;152.60;;;75.35;;
35298;SDS011;21415;48.054;16.646;2022-12-24T17:02:09;307.02;;;158.95;;
35298;SDS011;21415;48.054;16.646;2022-12-24T17:04:38;333.10;;;174.65;;
35298;SDS011;21415;48.054;16.646;2022-12-24T17:07:04;280.95;;;146.45;;
35298;SDS011;21415;48.054;16.646;2022-12-24T17:09:30;492.05;;;240.18;;
35298;SDS011;21415;48.054;16.646;2022-12-24T17:11:56;414.25;;;194.35;;
35298;SDS011;21415;48.054;16.646;2022-12-24T17:14:22;185.15;;;91.68;;
35298;SDS011;21415;48.054;16.646;2022-12-24T17:16:47;86.93;;;41.63;;
35298;SDS011;21415;48.054;16.646;2022-12-24T17:19:13;68.75;;;31.40;;
35298;SDS011;21415;48.054;16.646;2022-12-24T17:21:39;30.90;;;15.13;;
35298;SDS011;21415;48.054;16.646;2022-12-24T17:24:06;25.00;;;11.85;;
35298;SDS011;21415;48.054;16.646;2022-12-24T17:26:32;16.73;;;7.75;;